Time;durP1;ratioP1;P1;durP2;ratioP2;P2;SDS_P1;SDS_P2;PMS_P1;PMS_P2;Temp;Humidity;BMP_temperature;BMP_pressure;BME280_temperature;BME280_humidity;BME280_pressure;Samples;Min_cycle;Max_cycle;Signal;HPM_P1;HPM_P2
2022/06/16 00:02:04;;;;;;;9.77;4.40;;;;;;;;;;5078087;28;20068;-73
2022/06/16 00:04:30;;;;;;;10.40;4.80;;;;;;;;;;5084470;28;20036;-73
2022/06/16 00:06:56;;;;;;;10.88;4.38;;;;;;;;;;5077580;28;20050;-73
2022/06/16 00:09:26;;;;;;;11.75;4.93;;;;;;;;;;5091095;28;20025;-73
2022/06/16 00:11:52;;;;;;;9.10;4.15;;;;;;;;;;5087414;28;20081;-73
2022/06/16 00:14:18;;;;;;;10.68;4.80;;;;;;;;;;5088413;28;20024;-73
2022/06/16 00:16:45;;;;;;;10.68;4.45;;;;;;;;;;5098250;28;20020;-73
2022/06/16 00:19:11;;;;;;;10.35;4.35;;;;;;;;;;5092095;28;20035;-73
2022/06/16 00:21:37;;;;;;;9.00;3.95;;;;;;;;;;5078573;28;20074;-73
2022/06/16 00:24:03;;;;;;;10.25;4.43;;;;;;;;;;5095190;28;20016;-73
2022/06/16 00:26:30;;;;;;;9.88;4.72;;;;;;;;;;5093267;28;20017;-72
2022/06/16 00:28:56;;;;;;;12.02;4.80;;;;;;;;;;5095098;28;20043;-73
2022/06/16 00:31:23;;;;;;;11.00;4.97;;;;;;;;;;5082946;28;20012;-73
2022/06/16 00:33:50;;;;;;;9.30;4.20;;;;;;;;;;5093047;28;20025;-73
2022/06/16 00:36:16;;;;;;;10.25;4.55;;;;;;;;;;5094553;28;20021;-73
2022/06/16 00:38:43;;;;;;;14.05;4.97;;;;;;;;;;5097738;28;20039;-73
2022/06/16 00:41:10;;;;;;;14.43;4.88;;;;;;;;;;5082650;28;20020;-74
2022/06/16 00:43:36;;;;;;;10.57;4.63;;;;;;;;;;5097691;28;20021;-73
2022/06/16 00:46:06;;;;;;;12.23;5.30;;;;;;;;;;5093746;28;20028;-73
2022/06/16 00:48:39;;;;;;;9.35;4.85;;;;;;;;;;5087067;28;20076;-73
2022/06/16 00:51:05;;;;;;;12.10;5.70;;;;;;;;;;5078010;28;20097;-73
2022/06/16 00:53:32;;;;;;;9.43;4.88;;;;;;;;;;5084774;28;20027;-73
2022/06/16 00:55:58;;;;;;;10.57;5.45;;;;;;;;;;5095107;28;20020;-73
2022/06/16 00:58:26;;;;;;;12.13;5.70;;;;;;;;;;5086907;28;20055;-73
2022/06/16 01:00:52;;;;;;;12.93;6.22;;;;;;;;;;5085000;28;20044;-73
2022/06/16 01:06:17;;;;;;;11.52;6.07;;;;;;;;;;5085414;28;20028;-73
2022/06/16 01:08:43;;;;;;;9.63;5.70;;;;;;;;;;5086000;28;20029;-73
2022/06/16 01:13:41;;;;;;;12.98;6.32;;;;;;;;;;5093270;28;20028;-73
2022/06/16 01:14:01;;;;;;;10.68;5.65;;;;;;;;;;5077657;28;20036;-73
2022/06/16 01:16:29;;;;;;;12.05;6.63;;;;;;;;;;5079818;28;20051;-73
2022/06/16 01:19:14;;;;;;;10.50;6.88;;;;;;;;;;5095684;28;20028;-73
2022/06/16 01:21:49;;;;;;;12.95;6.65;;;;;;;;;;5097148;28;20020;-73
2022/06/16 01:24:15;;;;;;;12.82;6.78;;;;;;;;;;5082409;28;20055;-73
2022/06/16 01:26:44;;;;;;;12.73;6.55;;;;;;;;;;5087430;28;20056;-73
2022/06/16 01:29:14;;;;;;;10.70;6.35;;;;;;;;;;5089148;28;20074;-73
2022/06/16 01:31:46;;;;;;;10.90;6.32;;;;;;;;;;5096516;28;20036;-73
2022/06/16 01:34:23;;;;;;;12.55;6.35;;;;;;;;;;5095298;28;20056;-73
2022/06/16 01:36:54;;;;;;;10.48;6.35;;;;;;;;;;5086592;28;20017;-73
2022/06/16 01:39:25;;;;;;;10.35;5.95;;;;;;;;;;5095662;28;20033;-73
2022/06/16 01:42:01;;;;;;;13.80;5.95;;;;;;;;;;5085639;28;20040;-73
2022/06/16 01:44:30;;;;;;;11.75;6.13;;;;;;;;;;5077041;28;20068;-73
2022/06/16 01:46:58;;;;;;;9.93;6.50;;;;;;;;;;5086864;28;20078;-73
2022/06/16 01:49:29;;;;;;;8.52;5.90;;;;;;;;;;5090794;28;20051;-74
2022/06/16 01:52:18;;;;;;;9.02;5.90;;;;;;;;;;5091225;28;20027;-73
2022/06/16 01:54:47;;;;;;;12.88;6.15;;;;;;;;;;5082706;28;20033;-73
2022/06/16 01:57:19;;;;;;;9.68;5.82;;;;;;;;;;5093791;28;20105;-73
2022/06/16 01:59:49;;;;;;;12.13;6.18;;;;;;;;;;5086388;28;20031;-73
2022/06/16 02:02:17;;;;;;;9.90;6.00;;;;;;;;;;5095659;28;21273;-73
2022/06/16 02:04:46;;;;;;;10.07;6.32;;;;;;;;;;5085351;28;20041;-73
2022/06/16 02:07:17;;;;;;;10.90;6.00;;;;;;;;;;5084536;28;20037;-73
2022/06/16 02:09:46;;;;;;;12.93;6.15;;;;;;;;;;5098445;28;20056;-73
2022/06/16 02:15:06;;;;;;;13.00;6.05;;;;;;;;;;5086427;28;20029;-73
2022/06/16 02:17:32;;;;;;;10.73;5.85;;;;;;;;;;5101167;28;20052;-73
2022/06/16 02:19:58;;;;;;;11.52;6.25;;;;;;;;;;5099611;28;20028;-73
2022/06/16 02:22:24;;;;;;;11.05;6.22;;;;;;;;;;5098112;28;20041;-73
2022/06/16 02:24:50;;;;;;;13.68;6.57;;;;;;;;;;5089092;28;20090;-73
2022/06/16 02:27:16;;;;;;;13.40;6.22;;;;;;;;;;5096289;28;20020;-73
2022/06/16 02:29:42;;;;;;;13.57;5.75;;;;;;;;;;5088041;28;20047;-73
2022/06/16 02:32:08;;;;;;;12.07;6.25;;;;;;;;;;5096461;28;20048;-73
2022/06/16 02:34:37;;;;;;;11.60;5.85;;;;;;;;;;5096219;28;20059;-73
2022/06/16 02:37:22;;;;;;;14.43;6.55;;;;;;;;;;5089890;28;20053;-73
2022/06/16 02:40:09;;;;;;;11.68;5.50;;;;;;;;;;5099684;28;20104;-73
2022/06/16 02:42:42;;;;;;;11.80;5.85;;;;;;;;;;5092138;28;20089;-73
2022/06/16 02:45:11;;;;;;;11.10;6.22;;;;;;;;;;5099948;28;20040;-73
2022/06/16 02:47:57;;;;;;;13.02;5.85;;;;;;;;;;5096816;28;20072;-73
2022/06/16 02:50:29;;;;;;;12.40;5.68;;;;;;;;;;5081779;28;20037;-73
2022/06/16 02:53:02;;;;;;;15.60;6.80;;;;;;;;;;5096911;28;20044;-73
2022/06/16 02:55:31;;;;;;;11.60;6.30;;;;;;;;;;5082420;28;20040;-73
2022/06/16 02:57:58;;;;;;;11.02;6.07;;;;;;;;;;5079242;28;20070;-74
2022/06/16 03:00:27;;;;;;;13.35;7.00;;;;;;;;;;5092949;28;20049;-73
2022/06/16 03:02:53;;;;;;;10.27;6.55;;;;;;;;;;5095946;28;20017;-73
2022/06/16 03:05:19;;;;;;;12.77;6.45;;;;;;;;;;5091122;28;20025;-73
2022/06/16 03:07:46;;;;;;;12.35;6.47;;;;;;;;;;5078835;28;20088;-73
2022/06/16 03:10:14;;;;;;;9.65;5.65;;;;;;;;;;5094422;28;20025;-73
2022/06/16 03:12:40;;;;;;;10.95;6.40;;;;;;;;;;5081588;28;20024;-73
2022/06/16 03:15:06;;;;;;;10.35;6.57;;;;;;;;;;5096335;28;20017;-73
2022/06/16 03:17:32;;;;;;;14.43;6.72;;;;;;;;;;5090156;28;20051;-73
2022/06/16 03:19:59;;;;;;;13.48;6.95;;;;;;;;;;5097189;28;20431;-73
2022/06/16 03:22:25;;;;;;;15.20;6.85;;;;;;;;;;5084060;28;20080;-73
2022/06/16 03:24:51;;;;;;;9.68;6.40;;;;;;;;;;5091530;28;20049;-72
2022/06/16 03:27:17;;;;;;;13.05;6.40;;;;;;;;;;5112969;28;20044;-73
2022/06/16 03:29:43;;;;;;;11.02;6.50;;;;;;;;;;5086732;28;20051;-73
2022/06/16 03:32:09;;;;;;;10.93;6.45;;;;;;;;;;5096407;28;20036;-73
2022/06/16 03:34:35;;;;;;;11.23;6.05;;;;;;;;;;5090145;28;20025;-73
2022/06/16 03:37:01;;;;;;;10.98;6.82;;;;;;;;;;5079224;28;20026;-73
2022/06/16 03:39:27;;;;;;;11.55;6.28;;;;;;;;;;5079467;28;20040;-73
2022/06/16 03:41:53;;;;;;;14.13;6.40;;;;;;;;;;5087630;28;20104;-73
2022/06/16 03:44:19;;;;;;;9.35;5.80;;;;;;;;;;5089941;28;20080;-73
2022/06/16 03:46:45;;;;;;;12.77;6.28;;;;;;;;;;5091151;28;20031;-73
2022/06/16 03:49:12;;;;;;;10.70;5.78;;;;;;;;;;5087618;28;20056;-73
2022/06/16 03:51:38;;;;;;;13.25;5.45;;;;;;;;;;5098839;28;20112;-73
2022/06/16 03:54:04;;;;;;;10.70;5.00;;;;;;;;;;5097749;28;20029;-73
2022/06/16 03:56:30;;;;;;;11.52;5.30;;;;;;;;;;5095278;28;20044;-73
2022/06/16 03:58:56;;;;;;;10.82;5.22;;;;;;;;;;5081078;28;20033;-73
2022/06/16 04:01:23;;;;;;;10.77;5.03;;;;;;;;;;5091246;28;20032;-73
2022/06/16 04:04:01;;;;;;;10.93;5.55;;;;;;;;;;5084947;28;20053;-73
2022/06/16 04:06:28;;;;;;;10.15;5.55;;;;;;;;;;5099047;28;20024;-73
2022/06/16 04:08:54;;;;;;;12.52;5.70;;;;;;;;;;5096609;28;20032;-73
2022/06/16 04:11:30;;;;;;;12.77;5.68;;;;;;;;;;5099317;28;20044;-73
2022/06/16 04:13:57;;;;;;;11.88;5.85;;;;;;;;;;5093572;28;20492;-73
2022/06/16 04:16:23;;;;;;;8.73;5.43;;;;;;;;;;5082852;28;20048;-73
2022/06/16 04:18:49;;;;;;;9.80;5.43;;;;;;;;;;5081659;28;20039;-73
2022/06/16 04:21:15;;;;;;;9.45;5.72;;;;;;;;;;5097361;28;20047;-73
2022/06/16 04:23:41;;;;;;;9.63;6.22;;;;;;;;;;5098310;28;20024;-73
2022/06/16 04:26:08;;;;;;;11.18;6.50;;;;;;;;;;5092983;28;20013;-73
2022/06/16 04:28:34;;;;;;;9.52;6.22;;;;;;;;;;5088638;28;20037;-73
2022/06/16 04:31:00;;;;;;;10.90;6.50;;;;;;;;;;5087859;28;20036;-73
2022/06/16 04:33:26;;;;;;;9.20;5.90;;;;;;;;;;5090213;28;20027;-73
2022/06/16 04:35:52;;;;;;;11.00;6.18;;;;;;;;;;5080672;28;20059;-73
2022/06/16 04:38:19;;;;;;;10.43;6.38;;;;;;;;;;5095188;28;20074;-74
2022/06/16 04:40:45;;;;;;;9.98;6.43;;;;;;;;;;5097019;28;20024;-74
2022/06/16 04:43:14;;;;;;;10.20;6.32;;;;;;;;;;5086442;28;20041;-73
2022/06/16 04:45:40;;;;;;;8.82;5.90;;;;;;;;;;5077761;28;20056;-73
2022/06/16 04:48:07;;;;;;;11.35;5.90;;;;;;;;;;5079744;28;20055;-73
2022/06/16 04:50:34;;;;;;;13.05;5.45;;;;;;;;;;5097457;28;20036;-73
2022/06/16 04:53:00;;;;;;;9.48;5.38;;;;;;;;;;5090664;28;20021;-74
2022/06/16 04:55:26;;;;;;;9.00;4.88;;;;;;;;;;5079833;28;20025;-73
2022/06/16 04:57:54;;;;;;;9.70;5.13;;;;;;;;;;5084794;28;20029;-73
2022/06/16 05:00:20;;;;;;;10.80;4.80;;;;;;;;;;5095580;28;20047;-74
2022/06/16 05:02:47;;;;;;;10.50;5.20;;;;;;;;;;5088834;28;20049;-73
2022/06/16 05:05:13;;;;;;;7.93;4.63;;;;;;;;;;5081615;28;20053;-74
2022/06/16 05:07:39;;;;;;;10.98;4.78;;;;;;;;;;5087484;28;20013;-73
2022/06/16 05:10:05;;;;;;;11.90;5.40;;;;;;;;;;5088922;28;20040;-74
2022/06/16 05:12:31;;;;;;;10.68;3.75;;;;;;;;;;5090723;28;20028;-73
2022/06/16 05:14:57;;;;;;;6.57;3.33;;;;;;;;;;5080410;28;20080;-74
2022/06/16 05:17:23;;;;;;;8.57;3.10;;;;;;;;;;5085775;28;20040;-73
2022/06/16 05:19:49;;;;;;;8.55;3.80;;;;;;;;;;5084012;28;20045;-73
2022/06/16 05:22:15;;;;;;;9.02;3.53;;;;;;;;;;5083532;28;20048;-73
2022/06/16 05:24:41;;;;;;;9.48;2.92;;;;;;;;;;5082465;28;20045;-73
2022/06/16 05:27:08;;;;;;;8.95;3.25;;;;;;;;;;5086664;28;20044;-73
2022/06/16 05:29:34;;;;;;;8.63;3.30;;;;;;;;;;5090127;28;20055;-73
2022/06/16 05:32:00;;;;;;;7.70;3.70;;;;;;;;;;5082531;28;20063;-74
2022/06/16 05:34:26;;;;;;;8.20;4.00;;;;;;;;;;5085036;28;20017;-74
2022/06/16 05:36:52;;;;;;;8.77;3.88;;;;;;;;;;5083306;28;20040;-73
2022/06/16 05:39:18;;;;;;;8.15;4.10;;;;;;;;;;5082730;28;20064;-73
2022/06/16 05:41:46;;;;;;;8.05;4.00;;;;;;;;;;5085577;28;20045;-74
2022/06/16 05:44:12;;;;;;;10.15;4.13;;;;;;;;;;5095874;28;20075;-73
2022/06/16 05:46:40;;;;;;;8.65;4.72;;;;;;;;;;5093805;28;20037;-73
2022/06/16 05:49:06;;;;;;;8.95;5.32;;;;;;;;;;5091475;28;20052;-73
2022/06/16 05:51:32;;;;;;;10.13;5.50;;;;;;;;;;5082040;28;20045;-73
2022/06/16 05:53:58;;;;;;;9.43;4.80;;;;;;;;;;5088846;28;20029;-73
2022/06/16 05:56:24;;;;;;;10.07;5.28;;;;;;;;;;5079035;28;20025;-74
2022/06/16 05:58:51;;;;;;;9.75;5.53;;;;;;;;;;5091173;28;20061;-74
2022/06/16 06:01:17;;;;;;;8.10;4.60;;;;;;;;;;5118483;28;20040;-74
2022/06/16 06:03:44;;;;;;;10.05;4.95;;;;;;;;;;5082484;28;20028;-74
2022/06/16 06:06:10;;;;;;;8.68;4.70;;;;;;;;;;5082661;28;20036;-74
2022/06/16 06:17:13;;;;;;;7.68;3.65;;;;;;;;;;5078448;28;20128;-73
2022/06/16 06:19:39;;;;;;;7.65;3.20;;;;;;;;;;5075009;28;20037;-73
2022/06/16 06:22:13;;;;;;;7.55;3.10;;;;;;;;;;5063835;28;20044;-73
2022/06/16 06:24:56;;;;;;;7.43;3.22;;;;;;;;;;5075484;28;20232;-74
2022/06/16 06:27:39;;;;;;;5.82;1.95;;;;;;;;;;5068079;28;20053;-74
2022/06/16 06:30:07;;;;;;;6.68;2.00;;;;;;;;;;5083076;28;20128;-73
2022/06/16 06:32:33;;;;;;;7.30;2.08;;;;;;;;;;5084313;28;20045;-72
2022/06/16 06:34:59;;;;;;;7.50;1.92;;;;;;;;;;5080265;28;20041;-73
2022/06/16 06:37:26;;;;;;;5.40;1.77;;;;;;;;;;5068339;28;20092;-72
2022/06/16 06:39:52;;;;;;;6.63;2.10;;;;;;;;;;5081296;28;20047;-73
2022/06/16 06:42:18;;;;;;;5.90;2.20;;;;;;;;;;5083268;28;20097;-72
2022/06/16 06:44:45;;;;;;;5.78;2.28;;;;;;;;;;5082828;28;20053;-73
2022/06/16 06:47:17;;;;;;;8.93;2.63;;;;;;;;;;5083428;28;20048;-72
2022/06/16 06:49:43;;;;;;;7.35;1.70;;;;;;;;;;5084172;28;20490;-75
2022/06/16 06:52:09;;;;;;;5.82;1.50;;;;;;;;;;5083460;28;20048;-73
2022/06/16 06:54:35;;;;;;;5.28;1.27;;;;;;;;;;5066596;28;20049;-72
2022/06/16 06:57:02;;;;;;;4.25;1.27;;;;;;;;;;5074568;28;20075;-72
2022/06/16 06:59:28;;;;;;;5.45;1.20;;;;;;;;;;5081950;28;20044;-72
2022/06/16 07:01:54;;;;;;;3.88;0.98;;;;;;;;;;5074906;28;20036;-73
2022/06/16 07:04:20;;;;;;;5.72;1.27;;;;;;;;;;5082040;28;20053;-73
2022/06/16 07:06:47;;;;;;;3.85;1.05;;;;;;;;;;5069604;28;20040;-72
2022/06/16 07:09:14;;;;;;;4.82;1.00;;;;;;;;;;5061567;28;20041;-74
2022/06/16 07:11:41;;;;;;;3.80;0.82;;;;;;;;;;5060601;28;20037;-72
2022/06/16 07:14:08;;;;;;;3.83;0.80;;;;;;;;;;5067918;28;20077;-72
2022/06/16 07:16:34;;;;;;;4.30;0.95;;;;;;;;;;5064794;28;20037;-72
2022/06/16 07:19:00;;;;;;;4.80;1.05;;;;;;;;;;5073351;28;20055;-72
2022/06/16 07:21:26;;;;;;;4.75;1.10;;;;;;;;;;5083478;28;20053;-72
2022/06/16 07:23:53;;;;;;;5.72;0.98;;;;;;;;;;5073012;28;20036;-74
2022/06/16 07:26:19;;;;;;;6.53;1.02;;;;;;;;;;5055185;28;20055;-74
2022/06/16 07:28:46;;;;;;;5.13;0.95;;;;;;;;;;5055463;28;20132;-74
2022/06/16 07:31:12;;;;;;;5.25;1.20;;;;;;;;;;5053885;28;20076;-74
2022/06/16 07:33:38;;;;;;;4.95;0.90;;;;;;;;;;5057151;28;20121;-75
2022/06/16 07:36:04;;;;;;;4.05;0.80;;;;;;;;;;5080373;28;20056;-73
2022/06/16 07:38:30;;;;;;;3.78;0.93;;;;;;;;;;5103589;28;20041;-73
2022/06/16 07:41:31;;;;;;;4.70;1.00;;;;;;;;;;5098035;28;20051;-73
2022/06/16 07:43:42;;;;;;;4.85;0.90;;;;;;;;;;5077909;28;20128;-74
2022/06/16 07:46:08;;;;;;;6.55;0.93;;;;;;;;;;5079508;28;20058;-73
2022/06/16 07:48:35;;;;;;;3.20;0.80;;;;;;;;;;5068997;28;20047;-73
2022/06/16 07:51:01;;;;;;;4.80;0.90;;;;;;;;;;5098146;28;20040;-73
2022/06/16 07:53:27;;;;;;;3.78;1.00;;;;;;;;;;5081879;28;20548;-75
2022/06/16 07:55:53;;;;;;;2.95;0.80;;;;;;;;;;5082996;28;20052;-74
2022/06/16 07:58:20;;;;;;;3.50;1.00;;;;;;;;;;5079122;28;20498;-72
2022/06/16 08:00:46;;;;;;;4.82;1.00;;;;;;;;;;5088323;28;20045;-75
2022/06/16 08:03:12;;;;;;;2.65;0.77;;;;;;;;;;5089779;28;20044;-75
2022/06/16 08:05:38;;;;;;;4.40;0.90;;;;;;;;;;5070279;28;20105;-72
2022/06/16 08:08:04;;;;;;;4.07;1.00;;;;;;;;;;5069905;28;20048;-73
2022/06/16 08:10:35;;;;;;;5.45;1.20;;;;;;;;;;5066189;28;20100;-72
2022/06/16 08:13:01;;;;;;;5.65;0.98;;;;;;;;;;5073281;28;20041;-73
2022/06/16 08:15:28;;;;;;;5.68;1.10;;;;;;;;;;5072590;28;20052;-72
2022/06/16 08:17:55;;;;;;;3.97;0.95;;;;;;;;;;5084894;28;20106;-73
2022/06/16 08:20:21;;;;;;;4.72;1.20;;;;;;;;;;5073181;28;20045;-74
2022/06/16 08:22:47;;;;;;;3.55;1.13;;;;;;;;;;5066554;28;20100;-72
2022/06/16 08:25:15;;;;;;;7.82;1.15;;;;;;;;;;5080296;28;20049;-73
2022/06/16 08:27:43;;;;;;;2.83;0.80;;;;;;;;;;5083354;28;20041;-73
2022/06/16 08:30:10;;;;;;;4.40;0.90;;;;;;;;;;5085578;28;20123;-72
2022/06/16 08:32:37;;;;;;;3.47;1.10;;;;;;;;;;5084620;28;20057;-73
2022/06/16 08:35:04;;;;;;;4.95;1.27;;;;;;;;;;5084218;28;20066;-73
2022/06/16 08:37:30;;;;;;;4.78;1.30;;;;;;;;;;5087236;28;20037;-73
2022/06/16 08:39:56;;;;;;;4.05;1.05;;;;;;;;;;5082932;28;20402;-73
2022/06/16 08:42:22;;;;;;;3.63;1.00;;;;;;;;;;5083138;28;20052;-74
2022/06/16 08:44:53;;;;;;;4.82;1.05;;;;;;;;;;5082713;28;20286;-72
2022/06/16 08:47:40;;;;;;;4.53;1.33;;;;;;;;;;5083211;28;20033;-73
2022/06/16 08:50:23;;;;;;;4.80;1.33;;;;;;;;;;5083768;28;20513;-73
2022/06/16 08:53:01;;;;;;;5.97;1.30;;;;;;;;;;5086240;28;20127;-73
2022/06/16 08:55:53;;;;;;;6.82;1.40;;;;;;;;;;5071207;28;20041;-74
2022/06/16 08:58:22;;;;;;;6.50;1.58;;;;;;;;;;5056012;28;20069;-73
2022/06/16 09:00:54;;;;;;;5.18;1.30;;;;;;;;;;5066199;28;20079;-74
2022/06/16 09:03:28;;;;;;;7.05;1.70;;;;;;;;;;5076880;28;20037;-73
2022/06/16 09:06:13;;;;;;;7.95;1.90;;;;;;;;;;5085517;28;20036;-75
2022/06/16 09:08:53;;;;;;;5.60;1.83;;;;;;;;;;5088205;28;20048;-75
2022/06/16 09:11:49;;;;;;;4.72;1.60;;;;;;;;;;5083374;28;20059;-74
2022/06/16 09:17:42;;;;;;;6.88;1.90;;;;;;;;;;5072021;28;20130;-73
2022/06/16 09:20:23;;;;;;;6.05;1.48;;;;;;;;;;5062844;28;20052;-73
2022/06/16 09:22:55;;;;;;;7.43;1.70;;;;;;;;;;5064290;28;20057;-75
2022/06/16 09:25:29;;;;;;;5.07;1.52;;;;;;;;;;5067971;28;20040;-74
2022/06/16 09:28:02;;;;;;;5.78;1.70;;;;;;;;;;5084162;28;20051;-73
2022/06/16 09:30:31;;;;;;;3.95;1.40;;;;;;;;;;5080237;28;20376;-73
2022/06/16 09:33:00;;;;;;;4.78;1.58;;;;;;;;;;5083075;28;20131;-74
2022/06/16 09:35:32;;;;;;;4.78;1.30;;;;;;;;;;5086617;28;20100;-74
2022/06/16 09:38:03;;;;;;;3.88;1.30;;;;;;;;;;5087255;28;20041;-73
2022/06/16 09:40:33;;;;;;;6.45;1.80;;;;;;;;;;5086513;28;20040;-74
2022/06/16 09:43:10;;;;;;;5.47;1.80;;;;;;;;;;5075415;28;20072;-74
2022/06/16 09:45:36;;;;;;;5.65;1.70;;;;;;;;;;5071636;28;20059;-72
2022/06/16 09:48:08;;;;;;;6.07;1.80;;;;;;;;;;5074480;28;20048;-75
2022/06/16 09:50:43;;;;;;;5.00;1.90;;;;;;;;;;5082687;28;20040;-73
2022/06/16 09:53:15;;;;;;;7.88;1.98;;;;;;;;;;5084683;28;20618;-73
2022/06/16 09:55:45;;;;;;;7.28;2.10;;;;;;;;;;5078782;28;20495;-73
2022/06/16 09:58:14;;;;;;;5.20;1.52;;;;;;;;;;5082084;28;20104;-73
2022/06/16 10:00:41;;;;;;;5.40;2.08;;;;;;;;;;5083074;28;20102;-75
2022/06/16 10:03:28;;;;;;;6.18;1.60;;;;;;;;;;5082852;28;20048;-74
2022/06/16 10:06:09;;;;;;;8.63;1.90;;;;;;;;;;5078313;28;20491;-73
2022/06/16 10:08:58;;;;;;;5.53;2.10;;;;;;;;;;5073734;28;20045;-74
2022/06/16 10:11:38;;;;;;;6.85;2.10;;;;;;;;;;5074191;28;20057;-74
2022/06/16 10:14:20;;;;;;;6.45;1.95;;;;;;;;;;5079065;28;20052;-74
2022/06/16 10:16:55;;;;;;;5.03;1.92;;;;;;;;;;5094488;28;20048;-74
2022/06/16 10:19:26;;;;;;;6.15;2.05;;;;;;;;;;5097994;28;20140;-74
2022/06/16 10:21:52;;;;;;;6.25;2.05;;;;;;;;;;5090581;28;20569;-74
2022/06/16 10:24:20;;;;;;;7.35;2.47;;;;;;;;;;5091653;28;20020;-75
2022/06/16 10:26:46;;;;;;;6.70;1.70;;;;;;;;;;5077805;28;20037;-74
2022/06/16 10:29:29;;;;;;;7.78;2.28;;;;;;;;;;5078519;28;20045;-75
2022/06/16 10:31:56;;;;;;;6.10;2.20;;;;;;;;;;5078244;28;20048;-71
2022/06/16 10:34:28;;;;;;;5.70;2.38;;;;;;;;;;5078307;28;20055;-74
2022/06/16 10:36:57;;;;;;;6.20;2.08;;;;;;;;;;5095707;28;20068;-74
2022/06/16 10:39:43;;;;;;;6.63;2.25;;;;;;;;;;5102186;28;20080;-73
2022/06/16 10:42:28;;;;;;;6.72;2.10;;;;;;;;;;5078770;28;20044;-74
2022/06/16 10:45:14;;;;;;;7.70;2.30;;;;;;;;;;5079201;28;20514;-73
2022/06/16 10:47:47;;;;;;;6.95;2.50;;;;;;;;;;5078540;28;20041;-74
2022/06/16 10:50:19;;;;;;;8.60;3.85;;;;;;;;;;5078141;28;20096;-73
2022/06/16 10:52:49;;;;;;;7.07;2.70;;;;;;;;;;5086636;28;20048;-75
2022/06/16 10:55:23;;;;;;;7.55;2.88;;;;;;;;;;5098800;28;20040;-74
2022/06/16 10:57:58;;;;;;;7.43;2.97;;;;;;;;;;5086769;28;20051;-73
2022/06/16 11:00:24;;;;;;;9.55;2.75;;;;;;;;;;5098082;28;20048;-74
2022/06/16 11:02:56;;;;;;;6.07;2.63;;;;;;;;;;5096342;28;20028;-74
2022/06/16 11:05:22;;;;;;;9.57;2.80;;;;;;;;;;5093465;28;20045;-73
2022/06/16 11:07:48;;;;;;;7.68;3.13;;;;;;;;;;5077233;28;20049;-74
2022/06/16 11:10:28;;;;;;;9.32;3.30;;;;;;;;;;5077356;28;20043;-74
2022/06/16 11:12:54;;;;;;;7.53;3.00;;;;;;;;;;5092013;28;20109;-74
2022/06/16 11:15:27;;;;;;;8.85;3.28;;;;;;;;;;5094733;28;20048;-73
2022/06/16 11:17:58;;;;;;;8.07;3.60;;;;;;;;;;5093139;28;20025;-74
2022/06/16 11:20:39;;;;;;;8.20;3.25;;;;;;;;;;5097528;28;20059;-74
2022/06/16 11:23:28;;;;;;;7.40;3.30;;;;;;;;;;5086082;28;20028;-73
2022/06/16 11:25:54;;;;;;;8.02;3.50;;;;;;;;;;5083420;28;20108;-73
2022/06/16 11:28:22;;;;;;;7.30;3.30;;;;;;;;;;5053049;28;20067;-74
2022/06/16 11:30:48;;;;;;;7.40;3.55;;;;;;;;;;5076917;28;20056;-74
2022/06/16 11:36:48;;;;;;;7.53;3.40;;;;;;;;;;5058855;28;20041;-75
2022/06/16 11:39:25;;;;;;;7.07;3.35;;;;;;;;;;5056457;28;20077;-74
2022/06/16 11:41:53;;;;;;;7.25;3.00;;;;;;;;;;5055139;28;20053;-74
2022/06/16 11:44:28;;;;;;;8.60;3.13;;;;;;;;;;5055160;28;20053;-74
2022/06/16 11:47:07;;;;;;;6.97;3.13;;;;;;;;;;5040182;28;20049;-74
2022/06/16 11:49:49;;;;;;;7.15;3.03;;;;;;;;;;5054090;28;20049;-74
2022/06/16 11:52:42;;;;;;;11.57;2.95;;;;;;;;;;5054179;28;20043;-74
2022/06/16 11:55:26;;;;;;;6.28;2.63;;;;;;;;;;5052396;28;20092;-73
2022/06/16 11:58:16;;;;;;;6.72;2.28;;;;;;;;;;5050971;28;20103;-73
2022/06/16 12:00:48;;;;;;;8.05;2.50;;;;;;;;;;5053257;28;20153;-74
2022/06/16 12:03:24;;;;;;;6.07;2.50;;;;;;;;;;5052490;28;20053;-72
2022/06/16 12:05:56;;;;;;;9.82;2.75;;;;;;;;;;5045726;28;20061;-74
2022/06/16 12:08:24;;;;;;;5.80;3.03;;;;;;;;;;5062895;28;20048;-72
2022/06/16 12:10:54;;;;;;;6.97;2.90;;;;;;;;;;5038711;28;20139;-73
2022/06/16 12:13:26;;;;;;;7.47;2.57;;;;;;;;;;5072374;28;20059;-73
2022/06/16 12:16:28;;;;;;;5.97;2.30;;;;;;;;;;5093033;28;20024;-73
2022/06/16 12:19:09;;;;;;;7.07;2.88;;;;;;;;;;5096405;28;20074;-74
2022/06/16 12:21:43;;;;;;;6.57;2.85;;;;;;;;;;5100036;28;20078;-73
2022/06/16 12:24:24;;;;;;;7.57;2.60;;;;;;;;;;5094165;28;20044;-73
2022/06/16 12:26:51;;;;;;;6.38;2.58;;;;;;;;;;5096143;28;20066;-75
2022/06/16 12:29:33;;;;;;;4.93;1.95;;;;;;;;;;5093443;28;20040;-73
2022/06/16 12:32:08;;;;;;;6.97;2.30;;;;;;;;;;5095075;28;20052;-73
2022/06/16 12:34:49;;;;;;;6.78;2.60;;;;;;;;;;5094139;28;20036;-72
2022/06/16 12:37:18;;;;;;;5.82;2.70;;;;;;;;;;5093202;28;20085;-73
2022/06/16 12:39:50;;;;;;;5.82;2.70;;;;;;;;;;5094890;28;20059;-72
2022/06/16 12:42:18;;;;;;;8.52;3.10;;;;;;;;;;5078053;28;20049;-73
2022/06/16 12:44:50;;;;;;;7.93;2.83;;;;;;;;;;5091850;28;20127;-73
2022/06/16 12:47:31;;;;;;;10.18;2.80;;;;;;;;;;5091483;28;20033;-73
2022/06/16 12:50:01;;;;;;;7.40;2.95;;;;;;;;;;5100197;28;20050;-73
2022/06/16 12:52:27;;;;;;;9.05;2.80;;;;;;;;;;5089193;28;20090;-74
2022/06/16 12:55:01;;;;;;;7.30;2.50;;;;;;;;;;5091383;28;20082;-74
2022/06/16 12:57:38;;;;;;;6.32;2.15;;;;;;;;;;5096511;28;20044;-72
2022/06/16 13:00:10;;;;;;;6.47;2.85;;;;;;;;;;5093253;28;20036;-73
2022/06/16 13:02:38;;;;;;;7.82;2.78;;;;;;;;;;5091103;28;20044;-72
2022/06/16 13:05:09;;;;;;;6.28;2.40;;;;;;;;;;5095068;28;20065;-73
2022/06/16 13:07:36;;;;;;;5.95;2.50;;;;;;;;;;5096501;28;20039;-73
2022/06/16 13:10:04;;;;;;;8.38;2.92;;;;;;;;;;5095788;28;20039;-73
2022/06/16 13:12:33;;;;;;;8.05;2.70;;;;;;;;;;5102575;28;20105;-73
2022/06/16 13:15:06;;;;;;;7.68;2.65;;;;;;;;;;5095972;28;20049;-73
2022/06/16 13:17:35;;;;;;;6.90;2.38;;;;;;;;;;5095687;28;20037;-73
2022/06/16 13:20:04;;;;;;;7.07;2.90;;;;;;;;;;5095056;28;20044;-73
2022/06/16 13:22:35;;;;;;;6.75;2.45;;;;;;;;;;5097045;28;20045;-73
2022/06/16 13:25:02;;;;;;;7.50;2.70;;;;;;;;;;5089429;28;20663;-73
2022/06/16 13:27:29;;;;;;;7.38;2.47;;;;;;;;;;5088195;28;20371;-74
2022/06/16 13:30:12;;;;;;;6.13;2.67;;;;;;;;;;5076581;28;20097;-73
2022/06/16 13:32:41;;;;;;;8.57;3.00;;;;;;;;;;5111172;28;20060;-74
2022/06/16 13:35:13;;;;;;;5.95;2.00;;;;;;;;;;5072567;28;20025;-74
2022/06/16 13:37:42;;;;;;;8.93;2.40;;;;;;;;;;5075098;28;20093;-73
2022/06/16 13:40:08;;;;;;;6.00;2.50;;;;;;;;;;5075307;28;20065;-73
2022/06/16 13:42:47;;;;;;;5.18;2.40;;;;;;;;;;5074825;28;20045;-74
2022/06/16 13:45:13;;;;;;;6.63;2.60;;;;;;;;;;5075472;28;20143;-73
2022/06/16 13:47:43;;;;;;;6.53;2.50;;;;;;;;;;5090392;28;20083;-73
2022/06/16 13:50:17;;;;;;;7.45;2.65;;;;;;;;;;5096782;28;20020;-73
2022/06/16 13:52:44;;;;;;;6.47;2.70;;;;;;;;;;5097124;28;20059;-73
2022/06/16 13:55:12;;;;;;;8.32;2.70;;;;;;;;;;5095356;28;20043;-74
2022/06/16 13:57:38;;;;;;;8.25;2.67;;;;;;;;;;5095765;28;20033;-73
2022/06/16 14:00:07;;;;;;;7.22;2.78;;;;;;;;;;5092280;28;20114;-73
2022/06/16 14:02:52;;;;;;;9.27;2.50;;;;;;;;;;5087569;28;20096;-73
2022/06/16 14:05:23;;;;;;;7.97;2.63;;;;;;;;;;5088147;28;20051;-75
2022/06/16 14:07:49;;;;;;;8.13;2.72;;;;;;;;;;5097700;28;20056;-73
2022/06/16 14:10:23;;;;;;;5.63;2.58;;;;;;;;;;5095202;28;20021;-74
2022/06/16 14:12:55;;;;;;;6.65;2.60;;;;;;;;;;5079681;28;20045;-73
2022/06/16 14:15:51;;;;;;;6.53;2.35;;;;;;;;;;5079184;28;20025;-73
2022/06/16 14:18:35;;;;;;;7.00;2.97;;;;;;;;;;5078122;28;20044;-74
2022/06/16 14:21:04;;;;;;;7.60;3.00;;;;;;;;;;5089457;28;20052;-74
2022/06/16 14:23:42;;;;;;;6.80;2.75;;;;;;;;;;5098228;28;20044;-72
2022/06/16 14:26:11;;;;;;;7.10;2.80;;;;;;;;;;5096126;28;20071;-74
2022/06/16 14:28:39;;;;;;;6.18;2.40;;;;;;;;;;5099234;28;20063;-74
2022/06/16 14:31:08;;;;;;;6.95;2.60;;;;;;;;;;5098541;28;20044;-76
2022/06/16 14:33:42;;;;;;;6.60;2.40;;;;;;;;;;5095155;28;20043;-73
2022/06/16 14:36:14;;;;;;;5.10;2.17;;;;;;;;;;5091197;28;20028;-74
2022/06/16 14:38:55;;;;;;;7.95;2.60;;;;;;;;;;5097924;28;20052;-73
2022/06/16 14:41:41;;;;;;;7.30;2.58;;;;;;;;;;5099845;28;20048;-73
2022/06/16 14:44:26;;;;;;;5.22;2.45;;;;;;;;;;5094848;28;20062;-73
2022/06/16 14:46:52;;;;;;;6.75;2.50;;;;;;;;;;5096529;28;20033;-73
2022/06/16 14:49:24;;;;;;;7.00;2.85;;;;;;;;;;5097932;28;20062;-75
2022/06/16 14:51:51;;;;;;;11.93;2.63;;;;;;;;;;5095493;28;20048;-74
2022/06/16 14:54:27;;;;;;;5.75;2.40;;;;;;;;;;5083589;28;20031;-74
2022/06/16 14:56:54;;;;;;;6.43;2.58;;;;;;;;;;5093882;28;20040;-74
2022/06/16 14:59:21;;;;;;;6.63;2.25;;;;;;;;;;5089723;28;20043;-73
2022/06/16 15:01:49;;;;;;;5.20;2.20;;;;;;;;;;5096962;28;20057;-74
2022/06/16 15:04:18;;;;;;;9.48;2.58;;;;;;;;;;5098088;28;20039;-75
2022/06/16 15:06:48;;;;;;;7.82;2.58;;;;;;;;;;5097617;28;20064;-73
2022/06/16 15:09:20;;;;;;;5.78;2.35;;;;;;;;;;5094031;28;20029;-74
2022/06/16 15:11:46;;;;;;;9.43;5.38;;;;;;;;;;5093823;28;20040;-74
2022/06/16 15:14:15;;;;;;;6.85;2.95;;;;;;;;;;5098134;28;20040;-74
2022/06/16 15:19:30;;;;;;;6.38;2.50;;;;;;;;;;5096627;28;20029;-75
2022/06/16 15:21:57;;;;;;;8.00;2.80;;;;;;;;;;5093318;28;20101;-73